Список аэропортов
Фактическая погода:

01 марта, 22:30
Температура: +13°C (+12.7*)
Ветер: южный 2 м/с
Давление: *764 мм
Без существ. явл.
Время (МСК)Темп. СВетерВлажностьДавлениеОблачностьОсадки
21:00+13ЮЗ, 3 м/с55%1018 гПаясно
22:00+11ЮЗ, 2 м/с64%1019 гПамалооблачно
23:00+10ЮЗ, 2 м/с71%1020 гПас прояснениями
02 марта
00:00+9ЮЗ, 2 м/с79%1021 гПаоблачно
01:00+8ЮЗ, 2 м/с86%1021 гПаоблачно
02:00+7Ю, 1 м/с93%1021 гПас прояснениями
03:00+6Ю, 1 м/с97%1022 гПаоблачно
04:00+5Штиль 99%1022 гПаоблачно
05:00+5Штиль 100%1021 гПаоблачно
06:00+5Штиль 99%1021 гПаоблачно
07:00+4СВ, 1 м/с99%1021 гПаоблачно
08:00+4С, 1 м/с100%1021 гПаоблачно
09:00+3С, 1 м/с100%1022 гПаоблачно
10:00+3С, 1 м/с100%1022 гПаоблачно
11:00+4С, 1 м/с94%1022 гПас прояснениями
12:00+7В, 1 м/с88%1020 гПас прояснениями
13:00+10ЮВ, 1 м/с78%1019 гПаясно
14:00+12Ю, 1 м/с66%1018 гПаясно
15:00+14Ю, 2 м/с59%1018 гПаясно
16:00+15Ю, 3 м/с54%1017 гПаясно
17:00+16Ю, 3 м/с51%1016 гПаясно
18:00+16ЮЗ, 3 м/с48%1015 гПаясно
19:00+17ЮЗ, 4 м/с47%1015 гПаясно
20:00+16ЮЗ, 3 м/с48%1015 гПаясно
21:00+15ЮЗ, 2 м/с53%1015 гПаясно
22:00+12З, 1 м/с68%1016 гПаясно
23:00+10С, 1 м/с74%1016 гПаясно
03 марта
00:00+9С, 2 м/с78%1016 гПас прояснениями
01:00+8С, 1 м/с85%1016 гПас прояснениями
02:00+7СВ, 1 м/с91%1015 гПаоблачно
03:00+6С, 1 м/с93%1015 гПаоблачно
04:00+6С, 2 м/с96%1014 гПаоблачно
05:00+5СВ, 1 м/с97%1013 гПас прояснениями
06:00+4В, 1 м/с96%1012 гПамалооблачно
07:00+4Штиль 97%1012 гПас прояснениями
08:00+4С, 1 м/с98%1011 гПаоблачно
09:00+3СВ, 1 м/с98%1010 гПаоблачно
10:00+3С, 1 м/с99%1010 гПаоблачно
11:00+5Штиль 95%1008 гПаоблачно
12:00+9Ю, 3 м/с81%1007 гПаоблачно
13:00+12Ю, 5 м/с68%1005 гПаоблачно
14:00+13Ю, 7 м/с61%1004 гПаоблачно
15:00+13Ю, 6 м/с55%1003 гПаоблачно
16:00+14ЮЗ, 8 м/с57%1002 гПаоблачносл. дождь
17:00+12Ю, 8 м/с66%1001 гПаоблачнодождь
18:00+11Ю, 8 м/с69%1000 гПаоблачнодождь
19:00+10Ю, 9 м/с70%999 гПаоблачнодождь
20:00+10ЮЗ, 8 м/с78%999 гПаоблачнодождь
21:00+8З, 9 м/с70%1000 гПаоблачнодождь